createdAt,value
2022-10-13T00:00:43.566Z,11.25
2022-10-13T00:03:11.275Z,10.87
2022-10-13T00:05:44.402Z,11.07
2022-10-13T00:08:12.347Z,10.85
2022-10-13T00:10:48.642Z,10.84
2022-10-13T00:13:18.172Z,10.74
2022-10-13T00:15:45.802Z,10.97
2022-10-13T00:18:13.597Z,10.97
2022-10-13T00:20:41.949Z,10.71
2022-10-13T00:23:10.115Z,10.75
2022-10-13T00:25:40.925Z,10.69
2022-10-13T00:28:08.310Z,10.87
2022-10-13T00:30:36.280Z,10.55
2022-10-13T00:33:03.782Z,10.60
2022-10-13T00:35:32.308Z,10.67
2022-10-13T00:37:59.704Z,10.54
2022-10-13T00:40:30.507Z,10.40
2022-10-13T00:42:59.318Z,10.71
2022-10-13T00:45:27.247Z,10.49
2022-10-13T00:48:01.074Z,10.33
2022-10-13T00:50:38.597Z,10.63
2022-10-13T00:53:06.743Z,10.47
2022-10-13T00:55:35.096Z,10.56
2022-10-13T00:58:05.500Z,10.82
2022-10-13T01:00:33.642Z,10.67
2022-10-13T01:03:02.518Z,10.71
2022-10-13T01:05:30.004Z,10.55
2022-10-13T01:07:57.692Z,10.43
2022-10-13T01:10:27.910Z,10.34
2022-10-13T01:13:04.312Z,10.56
2022-10-13T01:15:40.816Z,10.42
2022-10-13T01:18:21.264Z,10.28
2022-10-13T01:20:50.824Z,10.57
2022-10-13T01:23:21.699Z,10.40
2022-10-13T01:26:07.906Z,10.16
2022-10-13T01:28:47.455Z,10.57
2022-10-13T01:31:21.180Z,10.28
2022-10-13T01:33:54.555Z,10.23
2022-10-13T01:36:32.047Z,10.29
2022-10-13T01:39:10.409Z,10.00
2022-10-13T01:41:38.775Z,10.10
2022-10-13T01:44:09.238Z,10.02
2022-10-13T01:46:36.897Z,10.06
2022-10-13T01:49:09.916Z,10.31
2022-10-13T01:51:39.045Z,10.35
2022-10-13T01:54:06.432Z,10.14
2022-10-13T01:56:33.778Z,10.26
2022-10-13T01:59:02.435Z,10.11
2022-10-13T02:01:50.512Z,10.14
2022-10-13T02:04:24.504Z,9.98
2022-10-13T02:06:58.145Z,10.16
2022-10-13T02:09:44.629Z,10.02
2022-10-13T02:12:13.469Z,9.86
2022-10-13T02:14:41.424Z,9.96
2022-10-13T02:17:08.904Z,9.97
2022-10-13T02:19:40.481Z,10.05
2022-10-13T02:22:08.372Z,9.89
2022-10-13T02:24:36.112Z,9.96
2022-10-13T02:27:05.518Z,9.84
2022-10-13T02:29:32.925Z,9.78
2022-10-13T02:32:03.436Z,9.94
2022-10-13T02:34:30.828Z,9.91
2022-10-13T02:36:58.226Z,9.81
2022-10-13T02:39:25.983Z,9.85
2022-10-13T02:41:55.554Z,9.75
2022-10-13T02:44:24.960Z,9.67
2022-10-13T02:46:52.426Z,9.56
2022-10-13T02:49:20.356Z,9.61
2022-10-13T02:51:47.778Z,9.67
2022-10-13T02:54:15.180Z,9.81
2022-10-13T02:56:42.425Z,9.56
2022-10-13T02:59:09.741Z,9.86
2022-10-13T03:01:41.349Z,9.56
2022-10-13T03:04:08.929Z,9.80
2022-10-13T03:06:36.283Z,9.81
2022-10-13T03:09:03.911Z,9.48
2022-10-13T03:11:32.201Z,9.38
2022-10-13T03:13:59.632Z,9.48
2022-10-13T03:16:26.922Z,9.53
2022-10-13T03:18:54.283Z,9.48
2022-10-13T03:21:21.837Z,9.21
2022-10-13T03:23:49.619Z,9.47
2022-10-13T03:26:17.046Z,9.60
2022-10-13T03:28:52.267Z,9.36
2022-10-13T03:31:20.412Z,9.57
2022-10-13T03:33:47.831Z,9.58
2022-10-13T03:36:15.283Z,9.63
2022-10-13T03:38:43.104Z,9.61
2022-10-13T03:41:12.710Z,9.53
2022-10-13T03:43:40.340Z,9.45
2022-10-13T03:46:07.854Z,9.25
2022-10-13T03:48:36.105Z,9.51
2022-10-13T03:51:08.433Z,9.16
2022-10-13T03:53:35.939Z,9.24
2022-10-13T03:56:03.884Z,9.42
2022-10-13T03:58:34.128Z,9.30
2022-10-13T04:01:05.468Z,9.39
2022-10-13T04:03:33.529Z,9.26
2022-10-13T04:06:02.163Z,9.30
2022-10-13T04:08:30.212Z,9.24
2022-10-13T04:11:00.907Z,9.33
2022-10-13T04:13:28.248Z,9.36
2022-10-13T04:15:55.701Z,9.23
2022-10-13T04:18:23.085Z,9.19
2022-10-13T04:20:51.238Z,9.32
2022-10-13T04:23:18.818Z,9.56
2022-10-13T04:25:48.449Z,9.26
2022-10-13T04:28:15.904Z,9.43
2022-10-13T04:30:47.160Z,9.43
2022-10-13T04:33:17.009Z,9.32
2022-10-13T04:35:45.579Z,9.57
2022-10-13T04:38:13.458Z,9.22
2022-10-13T04:40:41.172Z,9.14
2022-10-13T04:43:08.632Z,9.23
2022-10-13T04:45:38.345Z,9.42
2022-10-13T04:48:05.718Z,9.54
2022-10-13T04:50:33.234Z,9.66
2022-10-13T04:53:00.940Z,9.66
2022-10-13T16:38:22.478Z,13.42
2022-10-13T16:40:50.256Z,13.35
2022-10-13T16:43:17.562Z,13.50
2022-10-13T16:45:59.994Z,13.24
2022-10-13T16:48:28.053Z,13.22
2022-10-13T16:50:55.750Z,13.04
2022-10-13T16:53:23.473Z,13.10
2022-10-13T16:55:51.260Z,13.16
2022-10-13T16:58:18.604Z,12.83
2022-10-13T17:00:45.953Z,12.88
2022-10-13T17:03:13.248Z,12.64
2022-10-13T17:05:40.723Z,12.60
2022-10-13T17:08:08.022Z,12.65
2022-10-13T17:10:35.560Z,12.87
2022-10-13T17:13:03.145Z,12.84
2022-10-13T17:15:32.718Z,12.90
2022-10-13T17:18:00.366Z,12.63
2022-10-13T17:20:27.986Z,12.44
2022-10-13T17:22:55.851Z,12.29
2022-10-13T17:25:23.335Z,12.07
2022-10-13T17:27:51.189Z,12.24
2022-10-13T17:30:19.085Z,12.14
2022-10-13T17:32:46.395Z,12.11
2022-10-13T17:35:18.095Z,12.07
2022-10-13T17:37:45.499Z,12.02
2022-10-13T17:40:13.974Z,12.25
2022-10-13T17:42:41.432Z,12.22
2022-10-13T17:45:09.157Z,12.34
2022-10-13T17:47:36.741Z,12.19
2022-10-13T17:50:04.261Z,12.35
2022-10-13T17:52:31.664Z,12.01
2022-10-13T17:54:59.008Z,12.16
2022-10-13T17:57:29.699Z,11.82
2022-10-13T18:00:04.426Z,11.96
2022-10-13T18:02:41.632Z,11.87
2022-10-13T18:05:09.319Z,11.62
2022-10-13T18:07:36.845Z,11.56
2022-10-13T18:10:05.346Z,11.88
2022-10-13T18:12:32.982Z,11.74
2022-10-13T18:15:00.437Z,11.50
2022-10-13T18:17:27.880Z,11.51
2022-10-13T18:19:55.785Z,11.38
2022-10-13T18:22:23.114Z,11.40
2022-10-13T18:24:56.718Z,11.31
2022-10-13T18:27:24.575Z,11.33
2022-10-13T18:29:52.545Z,11.18
2022-10-13T18:32:22.206Z,10.88
2022-10-13T18:34:49.552Z,11.12
2022-10-13T18:37:17.042Z,11.07
2022-10-13T18:39:44.871Z,10.99
2022-10-13T18:42:12.728Z,10.94
2022-10-13T18:44:40.106Z,10.86
2022-10-13T18:47:09.373Z,10.78
2022-10-13T18:49:37.363Z,11.18
2022-10-13T18:52:05.267Z,10.71
2022-10-13T18:54:32.648Z,10.87
2022-10-13T18:57:00.041Z,10.86
2022-10-13T18:59:29.937Z,10.72
2022-10-13T19:01:58.143Z,10.70
2022-10-13T19:04:26.365Z,10.59
2022-10-13T19:06:54.800Z,10.48
2022-10-13T19:09:22.875Z,10.55
2022-10-13T19:11:50.387Z,10.64
2022-10-13T19:14:19.922Z,10.50
2022-10-13T19:16:47.237Z,10.25
2022-10-13T19:19:15.387Z,10.58
2022-10-13T19:21:43.247Z,10.29
2022-10-13T19:24:11.260Z,10.28
2022-10-13T19:26:38.912Z,10.18
2022-10-13T19:29:07.793Z,10.22
2022-10-13T19:31:35.964Z,10.25
2022-10-13T19:34:07.555Z,10.32
2022-10-13T19:36:36.209Z,10.14
2022-10-13T19:39:05.868Z,10.20
2022-10-13T19:41:33.345Z,10.17
2022-10-13T19:44:00.887Z,10.30
2022-10-13T19:46:39.385Z,10.25
2022-10-13T19:49:06.759Z,10.54
2022-10-13T19:51:35.744Z,10.16
2022-10-13T19:54:03.548Z,10.27
2022-10-13T19:56:31.738Z,10.10
2022-10-13T19:58:59.662Z,10.20
2022-10-13T20:01:28.023Z,10.03
2022-10-13T20:03:56.011Z,9.86
2022-10-13T20:06:23.352Z,10.21
2022-10-13T20:08:53.061Z,10.19
2022-10-13T20:11:23.700Z,9.89
2022-10-13T20:13:53.396Z,9.93
2022-10-13T20:16:40.561Z,9.71
2022-10-13T20:19:11.590Z,9.77
2022-10-13T20:21:41.374Z,9.68
2022-10-13T20:24:12.005Z,9.71
2022-10-13T20:26:41.174Z,9.64
2022-10-13T20:29:08.632Z,9.68
2022-10-13T20:31:37.209Z,9.96
2022-10-13T20:34:04.727Z,9.51
2022-10-13T20:36:37.509Z,9.49
2022-10-13T20:39:06.373Z,9.48
2022-10-13T20:41:35.169Z,9.55
2022-10-13T20:44:02.622Z,9.69
2022-10-13T20:46:32.975Z,9.72
2022-10-13T20:49:15.828Z,9.57
2022-10-13T20:51:43.374Z,9.46
2022-10-13T20:54:11.435Z,9.24
2022-10-13T20:56:40.030Z,9.24
2022-10-13T20:59:08.523Z,9.19
2022-10-13T21:01:37.084Z,9.39
2022-10-13T21:04:04.583Z,9.32
2022-10-13T21:06:33.248Z,9.53
2022-10-13T21:09:03.885Z,9.44
2022-10-13T21:11:31.292Z,9.23
2022-10-13T21:13:59.000Z,9.40
2022-10-13T21:16:27.997Z,9.21
2022-10-13T21:18:56.173Z,9.02
2022-10-13T21:21:24.692Z,9.06
2022-10-13T21:23:52.773Z,9.24
2022-10-13T21:26:21.944Z,9.23
2022-10-13T21:28:50.080Z,8.90
2022-10-13T21:31:20.314Z,9.22
2022-10-13T21:33:47.614Z,8.89
2022-10-13T21:36:18.986Z,9.07
2022-10-13T21:38:47.428Z,8.88
2022-10-13T21:41:14.872Z,8.98
2022-10-13T21:43:43.493Z,8.98
2022-10-13T21:46:11.814Z,9.05
2022-10-13T21:48:44.108Z,9.04
2022-10-13T21:51:11.566Z,8.95
2022-10-13T21:53:38.992Z,8.86
2022-10-13T21:56:07.655Z,8.74
2022-10-13T21:58:35.239Z,8.93
2022-10-13T22:01:02.872Z,8.60
2022-10-13T22:03:30.361Z,8.93
2022-10-13T22:05:57.786Z,8.60
2022-10-13T22:08:37.549Z,8.79
2022-10-13T22:11:13.246Z,8.60
2022-10-13T22:13:41.001Z,8.62
2022-10-13T22:16:10.736Z,8.58
2022-10-13T22:18:45.820Z,8.76
2022-10-13T22:21:16.158Z,8.52
2022-10-13T22:23:43.780Z,8.96
2022-10-13T22:26:11.319Z,8.50
2022-10-13T22:28:38.702Z,8.60
2022-10-13T22:31:06.714Z,8.68
2022-10-13T22:33:34.956Z,8.69
2022-10-13T22:36:09.382Z,8.82
2022-10-13T22:38:37.042Z,8.66
2022-10-13T22:41:06.764Z,8.36
2022-10-13T22:43:34.215Z,8.50
2022-10-13T22:46:15.205Z,8.43
2022-10-13T22:48:42.640Z,8.09
2022-10-13T22:51:12.198Z,8.10
2022-10-13T22:53:39.619Z,8.23
2022-10-13T22:56:07.595Z,8.30
2022-10-13T22:58:35.678Z,8.09
2022-10-13T23:01:07.199Z,8.17
2022-10-13T23:03:34.925Z,8.35
2022-10-13T23:06:02.537Z,8.51
2022-10-13T23:08:30.199Z,8.33
2022-10-13T23:11:00.222Z,8.62
2022-10-13T23:13:27.640Z,8.55
2022-10-13T23:16:02.852Z,8.06
2022-10-13T23:18:34.831Z,8.27
2022-10-13T23:21:06.957Z,8.10
2022-10-13T23:23:34.475Z,7.83
2022-10-13T23:26:02.724Z,7.77
2022-10-13T23:28:30.526Z,7.80
2022-10-13T23:31:02.308Z,7.88
2022-10-13T23:33:30.014Z,7.72
2022-10-13T23:35:57.774Z,7.80
2022-10-13T23:38:25.257Z,8.11
2022-10-13T23:40:52.730Z,7.86
2022-10-13T23:43:21.392Z,8.04
2022-10-13T23:45:48.688Z,7.82
2022-10-13T23:48:16.120Z,7.87
2022-10-13T23:50:43.458Z,7.85
2022-10-13T23:53:10.825Z,7.89
2022-10-13T23:55:38.827Z,7.83
2022-10-13T23:58:06.208Z,7.87
